EDT,Max TemperatureF,Mean TemperatureF,Min TemperatureF,Max Dew PointF,MeanDew PointF,Min DewpointF,Max Humidity, Mean Humidity, Min Humidity, Max Sea Level PressureIn, Mean Sea Level PressureIn, Min Sea Level PressureIn, Max VisibilityMiles, Mean VisibilityMiles, Min VisibilityMiles, Max Wind SpeedMPH, Mean Wind SpeedMPH, Max Gust SpeedMPH,PrecipitationIn, CloudCover, Events, WindDirDegrees
2013-10-1,78,64,51,61,54,39,82,69,44,29.86,29.74,29.68,10,10,9,18,10,24,0.00,0,,214
2013-10-2,69,55,41,48,41,36,87,61,28,30.06,30.00,29.86,10,10,9,14,6,18,0.00,0,,233
2013-10-3,64,54,46,54,50,43,94,81,63,30.02,29.97,29.92,10,10,3,10,4,,0.13,5,,45
2013-10-4,60,56,53,52,50,48,88,78,68,30.11,30.03,29.94,10,10,10,13,7,17,0.02,8,,44
2013-10-5,57,55,53,54,53,48,94,90,82,30.10,29.97,29.81,10,9,3,23,11,28,0.66,8,Thunderstorm,71
2013-10-6,66,60,53,61,54,48,100,83,56,29.80,29.64,29.58,10,9,0,20,11,26,0.16,7,,190
2013-10-7,60,48,37,52,41,36,94,72,42,30.03,29.77,29.60,10,10,3,18,8,29,0.03,4,,308
2013-10-8,64,50,37,55,46,36,93,79,55,30.13,30.08,30.03,10,10,10,15,7,22,0.00,0,,216
2013-10-9,68,60,51,54,52,48,88,74,56,30.16,30.13,30.07,10,10,10,17,10,24,0.00,0,,199
2013-10-10,64,52,39,55,50,37,94,83,64,30.18,30.14,30.09,10,7,0,12,5,,0.00,2,,179
2013-10-11,64,52,42,55,50,39,100,85,63,30.11,30.06,29.98,10,6,0,14,3,16,0.00,3,,133
2013-10-12,64,58,48,57,54,39,88,80,62,30.00,29.92,29.86,10,9,4,18,9,24,0.01,3,Thunderstorm,183
2013-10-13,55,47,39,45,39,34,93,73,54,30.39,30.24,30.01,10,10,10,15,6,16,0.00,3,,285
2013-10-14,55,42,30,41,35,27,100,73,41,30.45,30.38,30.26,10,10,5,10,3,,0.00,0,,106
2013-10-15,57,52,46,55,48,39,94,83,72,30.26,29.94,29.67,10,9,2,17,10,23,0.08,6,,130
2013-10-16,53,50,44,54,44,36,100,83,66,29.88,29.74,29.62,10,8,1,15,6,23,0.09,8,,298
2013-10-17,50,40,30,37,34,28,100,79,58,29.88,29.80,29.73,10,10,3,9,4,,0.00,1,,240
2013-10-18,48,40,33,45,38,30,100,89,81,29.85,29.77,29.73,10,9,5,8,4,,0.08,6,,300
2013-10-19,50,42,33,37,34,30,100,79,57,29.84,29.73,29.65,10,10,6,12,4,,0.01,3,,259
2013-10-20,46,40,33,39,34,30,100,83,57,29.80,29.73,29.63,10,9,4,12,6,,0.13,6,,272
2013-10-21,42,36,30,39,29,19,100,73,49,29.77,29.70,29.61,10,10,7,22,10,31,0.07,7,,269
2013-10-22,46,37,28,34,28,23,93,74,49,29.91,29.80,29.65,10,10,2,18,12,25,0.02,4,,300
2013-10-23,42,35,28,28,25,21,93,71,42,29.90,29.87,29.84,10,10,10,16,8,26,0.00,3,,291
2013-10-24,46,37,28,28,25,23,93,70,43,30.16,30.01,29.89,10,10,10,17,9,22,0.00,2,,292
2013-10-25,48,37,28,34,27,23,93,67,43,30.22,30.06,29.64,10,10,10,24,10,36,0.00,3,,253
2013-10-26,48,40,33,36,30,25,76,64,50,29.97,29.77,29.57,10,10,9,17,11,29,0.00,6,,286
2013-10-27,48,40,32,34,28,27,80,63,43,30.05,29.90,29.80,10,10,10,17,7,25,0.00,6,,260
2013-10-28,41,34,28,32,22,18,75,60,42,30.47,30.36,30.07,10,10,10,15,9,23,0.00,2,,20
2013-10-29,37,29,21,34,24,16,93,82,65,30.48,30.38,30.20,10,10,5,6,2,,0.00,4,,20
2013-10-30,37,34,33,36,34,32,100,93,87,30.20,30.15,30.12,10,7,5,4,1,,0.00,8,,10
2013-10-31,53,50,48,52,51,46,100,94,88,29.45,29.25,29.07,10,5,0,12,5,,0.05,8,,15